sensor_id;sensor_type;location;lat;lon;timestamp;pressure;altitude;pressure_sealevel;temperature;humidity
28289;BME280;15558;50.874;6.964;2022-09-16T00:01:27;100656.16;;;18.29;62.39
28289;BME280;15558;50.874;6.964;2022-09-16T00:03:54;100659.34;;;18.28;62.25
28289;BME280;15558;50.874;6.964;2022-09-16T00:06:23;100662.19;;;18.28;62.61
28289;BME280;15558;50.874;6.964;2022-09-16T00:08:50;100662.28;;;18.20;62.81
28289;BME280;15558;50.874;6.964;2022-09-16T00:11:17;100666.44;;;18.22;63.03
28289;BME280;15558;50.874;6.964;2022-09-16T00:13:44;100676.50;;;18.20;63.21
28289;BME280;15558;50.874;6.964;2022-09-16T00:16:16;100673.81;;;18.23;62.92
28289;BME280;15558;50.874;6.964;2022-09-16T00:18:42;100678.63;;;18.23;62.89
28289;BME280;15558;50.874;6.964;2022-09-16T00:21:09;100679.22;;;18.16;63.37
28289;BME280;15558;50.874;6.964;2022-09-16T00:23:35;100669.53;;;18.17;63.42
28289;BME280;15558;50.874;6.964;2022-09-16T00:26:02;100674.00;;;18.18;63.42
28289;BME280;15558;50.874;6.964;2022-09-16T00:28:28;100665.00;;;18.16;63.16
28289;BME280;15558;50.874;6.964;2022-09-16T00:30:58;100666.88;;;18.12;63.51
28289;BME280;15558;50.874;6.964;2022-09-16T00:33:25;100672.22;;;18.14;63.20
28289;BME280;15558;50.874;6.964;2022-09-16T00:35:51;100662.88;;;18.13;63.10
28289;BME280;15558;50.874;6.964;2022-09-16T00:38:16;100670.44;;;18.09;63.24
28289;BME280;15558;50.874;6.964;2022-09-16T00:40:47;100662.41;;;18.11;63.44
28289;BME280;15558;50.874;6.964;2022-09-16T00:43:15;100663.22;;;18.12;63.20
28289;BME280;15558;50.874;6.964;2022-09-16T00:45:45;100671.41;;;18.13;63.32
28289;BME280;15558;50.874;6.964;2022-09-16T00:48:18;100663.94;;;18.09;63.32
28289;BME280;15558;50.874;6.964;2022-09-16T00:50:48;100666.78;;;18.09;63.33
28289;BME280;15558;50.874;6.964;2022-09-16T00:53:25;100662.13;;;18.04;63.59
28289;BME280;15558;50.874;6.964;2022-09-16T00:55:53;100656.78;;;18.03;63.78
28289;BME280;15558;50.874;6.964;2022-09-16T00:59:13;100652.63;;;18.00;63.59
28289;BME280;15558;50.874;6.964;2022-09-16T01:01:20;100661.84;;;17.97;63.75
28289;BME280;15558;50.874;6.964;2022-09-16T01:03:51;100659.97;;;18.01;63.91
28289;BME280;15558;50.874;6.964;2022-09-16T01:06:20;100663.13;;;18.00;64.03
28289;BME280;15558;50.874;6.964;2022-09-16T01:08:48;100667.19;;;17.99;64.11
28289;BME280;15558;50.874;6.964;2022-09-16T01:11:15;100664.00;;;18.00;64.13
28289;BME280;15558;50.874;6.964;2022-09-16T01:13:41;100656.53;;;17.96;64.32
28289;BME280;15558;50.874;6.964;2022-09-16T01:16:29;100658.75;;;17.91;64.58
28289;BME280;15558;50.874;6.964;2022-09-16T01:19:04;100661.00;;;17.97;64.21
28289;BME280;15558;50.874;6.964;2022-09-16T01:21:44;100660.19;;;17.96;64.12
28289;BME280;15558;50.874;6.964;2022-09-16T01:24:43;100673.69;;;17.99;64.40
28289;BME280;15558;50.874;6.964;2022-09-16T01:27:31;100665.97;;;18.00;64.47
28289;BME280;15558;50.874;6.964;2022-09-16T01:30:28;100669.19;;;17.98;64.36
28289;BME280;15558;50.874;6.964;2022-09-16T01:33:05;100664.69;;;17.97;64.20
28289;BME280;15558;50.874;6.964;2022-09-16T01:38:58;100674.25;;;17.93;64.68
28289;BME280;15558;50.874;6.964;2022-09-16T01:41:34;100664.56;;;17.94;64.61
28289;BME280;15558;50.874;6.964;2022-09-16T01:46:46;100655.91;;;17.91;64.78
28289;BME280;15558;50.874;6.964;2022-09-16T01:54:46;100658.03;;;17.93;65.29
28289;BME280;15558;50.874;6.964;2022-09-16T01:57:18;100657.44;;;17.88;65.29
28289;BME280;15558;50.874;6.964;2022-09-16T02:02:25;100657.84;;;17.98;65.35
28289;BME280;15558;50.874;6.964;2022-09-16T02:04:56;100654.41;;;18.05;65.26
28289;BME280;15558;50.874;6.964;2022-09-16T02:07:30;100652.41;;;18.05;65.33
28289;BME280;15558;50.874;6.964;2022-09-16T02:10:03;100656.78;;;18.03;65.43
28289;BME280;15558;50.874;6.964;2022-09-16T02:12:34;100652.75;;;18.04;65.40
28289;BME280;15558;50.874;6.964;2022-09-16T02:15:07;100648.00;;;17.96;65.71
28289;BME280;15558;50.874;6.964;2022-09-16T02:17:41;100646.47;;;17.98;65.47
28289;BME280;15558;50.874;6.964;2022-09-16T02:20:13;100646.50;;;18.10;65.06
28289;BME280;15558;50.874;6.964;2022-09-16T02:22:51;100645.22;;;18.08;64.99
28289;BME280;15558;50.874;6.964;2022-09-16T02:25:19;100650.75;;;18.04;65.41
28289;BME280;15558;50.874;6.964;2022-09-16T02:27:47;100650.91;;;18.08;65.23
28289;BME280;15558;50.874;6.964;2022-09-16T02:30:17;100651.38;;;18.10;65.27
28289;BME280;15558;50.874;6.964;2022-09-16T02:32:51;100650.63;;;18.01;65.39
28289;BME280;15558;50.874;6.964;2022-09-16T02:35:21;100648.75;;;18.05;65.73
28289;BME280;15558;50.874;6.964;2022-09-16T02:37:55;100646.50;;;18.10;65.36
28289;BME280;15558;50.874;6.964;2022-09-16T02:40:40;100643.34;;;18.12;65.18
28289;BME280;15558;50.874;6.964;2022-09-16T02:43:07;100645.34;;;18.11;65.71
28289;BME280;15558;50.874;6.964;2022-09-16T02:46:03;100645.00;;;18.13;65.72
28289;BME280;15558;50.874;6.964;2022-09-16T02:53:47;100646.78;;;18.17;65.62
28289;BME280;15558;50.874;6.964;2022-09-16T02:56:36;100641.69;;;18.11;65.69
28289;BME280;15558;50.874;6.964;2022-09-16T02:59:05;100641.31;;;18.12;65.47
28289;BME280;15558;50.874;6.964;2022-09-16T03:01:40;100643.59;;;18.19;65.20
28289;BME280;15558;50.874;6.964;2022-09-16T03:04:11;100640.28;;;18.17;65.33
28289;BME280;15558;50.874;6.964;2022-09-16T03:06:37;100640.97;;;18.14;65.96
28289;BME280;15558;50.874;6.964;2022-09-16T03:09:06;100648.75;;;18.05;66.71
28289;BME280;15558;50.874;6.964;2022-09-16T03:14:28;100638.06;;;18.02;67.71
28289;BME280;15558;50.874;6.964;2022-09-16T03:22:45;100636.34;;;18.09;68.17
28289;BME280;15558;50.874;6.964;2022-09-16T03:25:30;100644.22;;;18.04;68.59
28289;BME280;15558;50.874;6.964;2022-09-16T03:28:18;100635.78;;;17.95;68.72
28289;BME280;15558;50.874;6.964;2022-09-16T03:31:10;100624.91;;;17.97;69.10
28289;BME280;15558;50.874;6.964;2022-09-16T03:36:30;100623.63;;;17.95;69.74
28289;BME280;15558;50.874;6.964;2022-09-16T03:38:59;100621.13;;;17.93;69.68
28289;BME280;15558;50.874;6.964;2022-09-16T03:41:28;100621.97;;;17.94;69.71
28289;BME280;15558;50.874;6.964;2022-09-16T03:43:57;100619.94;;;17.94;69.38
28289;BME280;15558;50.874;6.964;2022-09-16T03:46:24;100615.53;;;17.85;69.93
28289;BME280;15558;50.874;6.964;2022-09-16T03:48:51;100609.50;;;17.87;70.03
28289;BME280;15558;50.874;6.964;2022-09-16T03:51:17;100610.81;;;17.89;69.90
28289;BME280;15558;50.874;6.964;2022-09-16T03:53:43;100611.19;;;17.88;69.69
28289;BME280;15558;50.874;6.964;2022-09-16T03:56:09;100608.34;;;17.88;69.97
28289;BME280;15558;50.874;6.964;2022-09-16T03:58:35;100616.63;;;17.92;69.98
28289;BME280;15558;50.874;6.964;2022-09-16T04:01:01;100616.50;;;17.89;69.59
28289;BME280;15558;50.874;6.964;2022-09-16T04:03:28;100618.03;;;17.87;69.80
28289;BME280;15558;50.874;6.964;2022-09-16T04:05:55;100606.19;;;17.85;69.69
28289;BME280;15558;50.874;6.964;2022-09-16T04:08:21;100608.78;;;17.90;69.51
28289;BME280;15558;50.874;6.964;2022-09-16T04:11:01;100611.03;;;17.84;69.49
28289;BME280;15558;50.874;6.964;2022-09-16T04:13:34;100609.03;;;17.85;69.56
28289;BME280;15558;50.874;6.964;2022-09-16T04:16:01;100613.75;;;17.81;69.59
28289;BME280;15558;50.874;6.964;2022-09-16T04:18:29;100608.78;;;17.78;69.58
28289;BME280;15558;50.874;6.964;2022-09-16T04:21:00;100598.47;;;17.73;69.54
28289;BME280;15558;50.874;6.964;2022-09-16T04:23:27;100610.41;;;17.79;69.54
28289;BME280;15558;50.874;6.964;2022-09-16T04:25:58;100603.59;;;17.80;69.49
28289;BME280;15558;50.874;6.964;2022-09-16T04:28:24;100607.59;;;17.79;68.79
28289;BME280;15558;50.874;6.964;2022-09-16T04:30:50;100605.47;;;17.76;69.08
28289;BME280;15558;50.874;6.964;2022-09-16T04:33:17;100601.19;;;17.70;69.14
28289;BME280;15558;50.874;6.964;2022-09-16T04:35:43;100599.63;;;17.72;68.81
28289;BME280;15558;50.874;6.964;2022-09-16T04:38:09;100598.81;;;17.72;68.35
28289;BME280;15558;50.874;6.964;2022-09-16T04:40:35;100597.50;;;17.69;68.00
28289;BME280;15558;50.874;6.964;2022-09-16T04:43:02;100595.25;;;17.63;68.21
28289;BME280;15558;50.874;6.964;2022-09-16T04:45:28;100602.56;;;17.64;68.24
28289;BME280;15558;50.874;6.964;2022-09-16T04:47:57;100593.56;;;17.62;67.51
28289;BME280;15558;50.874;6.964;2022-09-16T04:50:23;100603.47;;;17.56;67.88
28289;BME280;15558;50.874;6.964;2022-09-16T04:52:49;100595.59;;;17.61;67.64
28289;BME280;15558;50.874;6.964;2022-09-16T04:55:17;100597.31;;;17.54;67.61
28289;BME280;15558;50.874;6.964;2022-09-16T04:57:43;100607.03;;;17.53;67.64
28289;BME280;15558;50.874;6.964;2022-09-16T05:00:10;100613.28;;;17.47;67.64
28289;BME280;15558;50.874;6.964;2022-09-16T05:02:36;100610.53;;;17.50;67.35
28289;BME280;15558;50.874;6.964;2022-09-16T05:05:02;100606.22;;;17.53;66.85
28289;BME280;15558;50.874;6.964;2022-09-16T05:07:28;100618.72;;;17.52;67.12
28289;BME280;15558;50.874;6.964;2022-09-16T05:09:54;100619.63;;;17.44;67.00
28289;BME280;15558;50.874;6.964;2022-09-16T05:15:21;100619.44;;;17.49;67.01
28289;BME280;15558;50.874;6.964;2022-09-16T05:17:47;100609.47;;;17.43;67.20
28289;BME280;15558;50.874;6.964;2022-09-16T05:20:15;100618.66;;;17.40;67.20
28289;BME280;15558;50.874;6.964;2022-09-16T05:22:42;100609.66;;;17.38;66.87
28289;BME280;15558;50.874;6.964;2022-09-16T05:25:08;100611.00;;;17.40;67.10
28289;BME280;15558;50.874;6.964;2022-09-16T05:27:34;100606.00;;;17.37;67.45
28289;BME280;15558;50.874;6.964;2022-09-16T05:30:00;100610.13;;;17.40;67.22
28289;BME280;15558;50.874;6.964;2022-09-16T05:32:26;100613.94;;;17.44;67.32
28289;BME280;15558;50.874;6.964;2022-09-16T05:34:52;100610.28;;;17.43;66.86
28289;BME280;15558;50.874;6.964;2022-09-16T05:37:18;100608.56;;;17.51;66.66
28289;BME280;15558;50.874;6.964;2022-09-16T05:39:44;100615.06;;;17.51;65.91
28289;BME280;15558;50.874;6.964;2022-09-16T05:42:10;100613.03;;;17.52;66.27
28289;BME280;15558;50.874;6.964;2022-09-16T05:44:36;100614.09;;;17.47;66.39
28289;BME280;15558;50.874;6.964;2022-09-16T05:47:02;100609.88;;;17.53;66.40
28289;BME280;15558;50.874;6.964;2022-09-16T05:49:28;100618.78;;;17.63;65.98
28289;BME280;15558;50.874;6.964;2022-09-16T05:51:54;100608.97;;;17.61;65.32
28289;BME280;15558;50.874;6.964;2022-09-16T05:54:20;100620.78;;;17.63;65.62
28289;BME280;15558;50.874;6.964;2022-09-16T05:56:48;100618.22;;;17.50;65.48
28289;BME280;15558;50.874;6.964;2022-09-16T05:59:38;100616.03;;;17.55;65.16
28289;BME280;15558;50.874;6.964;2022-09-16T06:02:05;100609.16;;;17.56;65.24
28289;BME280;15558;50.874;6.964;2022-09-16T06:04:31;100619.81;;;17.59;65.32
28289;BME280;15558;50.874;6.964;2022-09-16T06:06:56;100622.19;;;17.57;64.96
28289;BME280;15558;50.874;6.964;2022-09-16T06:09:23;100612.28;;;17.63;64.83
28289;BME280;15558;50.874;6.964;2022-09-16T06:12:08;100616.84;;;17.56;63.94
28289;BME280;15558;50.874;6.964;2022-09-16T06:14:35;100622.91;;;17.66;63.67
28289;BME280;15558;50.874;6.964;2022-09-16T06:17:01;100615.47;;;17.61;64.50
28289;BME280;15558;50.874;6.964;2022-09-16T06:19:27;100622.66;;;17.59;64.72
28289;BME280;15558;50.874;6.964;2022-09-16T06:21:54;100618.72;;;17.52;64.17
28289;BME280;15558;50.874;6.964;2022-09-16T06:24:21;100620.41;;;17.53;64.75
28289;BME280;15558;50.874;6.964;2022-09-16T06:26:48;100612.00;;;17.56;64.37
28289;BME280;15558;50.874;6.964;2022-09-16T06:29:15;100617.56;;;17.53;65.18
28289;BME280;15558;50.874;6.964;2022-09-16T06:31:41;100621.97;;;17.62;64.96
28289;BME280;15558;50.874;6.964;2022-09-16T06:34:12;100622.00;;;17.74;65.13
28289;BME280;15558;50.874;6.964;2022-09-16T06:36:39;100624.03;;;17.73;65.00
28289;BME280;15558;50.874;6.964;2022-09-16T06:39:10;100622.84;;;17.74;64.87
28289;BME280;15558;50.874;6.964;2022-09-16T06:41:36;100616.09;;;17.79;64.52
28289;BME280;15558;50.874;6.964;2022-09-16T06:44:03;100619.22;;;17.86;64.00
28289;BME280;15558;50.874;6.964;2022-09-16T06:46:30;100616.25;;;17.82;64.50
28289;BME280;15558;50.874;6.964;2022-09-16T06:48:57;100621.22;;;17.85;64.64
28289;BME280;15558;50.874;6.964;2022-09-16T06:51:25;100614.72;;;17.85;64.33
28289;BME280;15558;50.874;6.964;2022-09-16T06:53:54;100616.63;;;17.92;63.07
28289;BME280;15558;50.874;6.964;2022-09-16T06:56:21;100619.47;;;17.92;63.40
28289;BME280;15558;50.874;6.964;2022-09-16T06:58:50;100617.59;;;17.96;62.99
28289;BME280;15558;50.874;6.964;2022-09-16T07:04:34;100616.53;;;18.01;62.85
28289;BME280;15558;50.874;6.964;2022-09-16T07:07:00;100617.66;;;18.08;62.56
28289;BME280;15558;50.874;6.964;2022-09-16T07:09:26;100622.69;;;18.03;63.15
28289;BME280;15558;50.874;6.964;2022-09-16T07:11:52;100620.91;;;17.98;63.64
28289;BME280;15558;50.874;6.964;2022-09-16T07:14:18;100616.41;;;17.97;63.40
28289;BME280;15558;50.874;6.964;2022-09-16T07:16:44;100630.00;;;18.04;63.14
28289;BME280;15558;50.874;6.964;2022-09-16T07:19:10;100631.88;;;18.08;63.37
28289;BME280;15558;50.874;6.964;2022-09-16T07:21:36;100631.50;;;18.10;62.84
28289;BME280;15558;50.874;6.964;2022-09-16T07:24:02;100632.09;;;18.15;62.55
28289;BME280;15558;50.874;6.964;2022-09-16T07:26:31;100636.00;;;18.23;63.26
28289;BME280;15558;50.874;6.964;2022-09-16T07:29:00;100632.34;;;18.22;62.92
28289;BME280;15558;50.874;6.964;2022-09-16T07:31:28;100640.38;;;18.20;63.48
28289;BME280;15558;50.874;6.964;2022-09-16T07:33:56;100633.44;;;18.29;63.03
28289;BME280;15558;50.874;6.964;2022-09-16T07:36:25;100628.00;;;18.48;62.19
28289;BME280;15558;50.874;6.964;2022-09-16T07:38:53;100634.84;;;18.47;61.82
28289;BME280;15558;50.874;6.964;2022-09-16T07:41:24;100630.38;;;18.46;60.56
28289;BME280;15558;50.874;6.964;2022-09-16T07:43:53;100635.00;;;18.51;61.17
28289;BME280;15558;50.874;6.964;2022-09-16T07:46:35;100635.09;;;18.42;61.80
28289;BME280;15558;50.874;6.964;2022-09-16T07:49:02;100634.03;;;18.35;62.68
28289;BME280;15558;50.874;6.964;2022-09-16T07:51:30;100635.69;;;18.36;63.03
28289;BME280;15558;50.874;6.964;2022-09-16T07:54:01;100640.06;;;18.45;62.90
28289;BME280;15558;50.874;6.964;2022-09-16T07:56:31;100641.50;;;18.39;63.24
28289;BME280;15558;50.874;6.964;2022-09-16T07:59:00;100642.22;;;18.48;63.44
28289;BME280;15558;50.874;6.964;2022-09-16T08:01:26;100644.84;;;18.77;62.90
28289;BME280;15558;50.874;6.964;2022-09-16T08:03:54;100642.34;;;18.99;63.42
28289;BME280;15558;50.874;6.964;2022-09-16T08:06:24;100647.78;;;19.16;60.00
28289;BME280;15558;50.874;6.964;2022-09-16T08:08:53;100645.25;;;19.38;59.84
28289;BME280;15558;50.874;6.964;2022-09-16T08:11:22;100642.53;;;19.41;59.72
28289;BME280;15558;50.874;6.964;2022-09-16T08:13:49;100652.22;;;19.52;60.42
28289;BME280;15558;50.874;6.964;2022-09-16T08:16:17;100659.25;;;19.43;60.06
28289;BME280;15558;50.874;6.964;2022-09-16T08:18:45;100651.19;;;19.45;58.33
28289;BME280;15558;50.874;6.964;2022-09-16T08:21:15;100659.94;;;19.40;58.86
28289;BME280;15558;50.874;6.964;2022-09-16T08:23:42;100670.53;;;19.39;58.66
28289;BME280;15558;50.874;6.964;2022-09-16T08:26:11;100671.00;;;19.41;59.73
28289;BME280;15558;50.874;6.964;2022-09-16T08:28:40;100669.13;;;19.22;60.00
28289;BME280;15558;50.874;6.964;2022-09-16T08:31:06;100667.81;;;19.31;59.32
28289;BME280;15558;50.874;6.964;2022-09-16T08:33:33;100670.41;;;19.36;58.31
28289;BME280;15558;50.874;6.964;2022-09-16T08:36:14;100676.91;;;19.36;59.63
28289;BME280;15558;50.874;6.964;2022-09-16T08:38:42;100677.84;;;19.40;58.45
28289;BME280;15558;50.874;6.964;2022-09-16T08:52:03;100672.34;;;19.59;58.08
28289;BME280;15558;50.874;6.964;2022-09-16T08:54:53;100676.56;;;19.77;57.53
28289;BME280;15558;50.874;6.964;2022-09-16T08:57:23;100669.81;;;20.08;57.97
28289;BME280;15558;50.874;6.964;2022-09-16T08:59:54;100681.34;;;20.27;54.81
28289;BME280;15558;50.874;6.964;2022-09-16T09:02:41;100688.06;;;20.35;54.96
28289;BME280;15558;50.874;6.964;2022-09-16T09:08:13;100696.00;;;20.41;55.47
28289;BME280;15558;50.874;6.964;2022-09-16T09:10:51;100693.53;;;20.55;54.18
28289;BME280;15558;50.874;6.964;2022-09-16T09:13:50;100686.22;;;20.42;54.24
28289;BME280;15558;50.874;6.964;2022-09-16T09:31:04;100669.13;;;21.68;52.11
28289;BME280;15558;50.874;6.964;2022-09-16T09:36:35;100660.75;;;22.34;49.37
28289;BME280;15558;50.874;6.964;2022-09-16T09:44:49;100659.81;;;22.08;50.60
28289;BME280;15558;50.874;6.964;2022-09-16T09:47:24;100657.19;;;21.81;49.89
28289;BME280;15558;50.874;6.964;2022-09-16T09:49:56;100666.78;;;21.73;50.23
28289;BME280;15558;50.874;6.964;2022-09-16T09:52:36;100665.88;;;21.69;50.02
28289;BME280;15558;50.874;6.964;2022-09-16T09:55:18;100663.63;;;21.59;50.30
28289;BME280;15558;50.874;6.964;2022-09-16T09:58:00;100665.78;;;21.47;50.97
28289;BME280;15558;50.874;6.964;2022-09-16T10:00:30;100662.84;;;21.28;51.45
28289;BME280;15558;50.874;6.964;2022-09-16T10:03:10;100659.13;;;21.09;50.20
28289;BME280;15558;50.874;6.964;2022-09-16T10:05:38;100666.94;;;21.12;52.10
28289;BME280;15558;50.874;6.964;2022-09-16T10:08:12;100664.88;;;21.28;51.17
28289;BME280;15558;50.874;6.964;2022-09-16T10:10:46;100663.59;;;21.25;51.23
28289;BME280;15558;50.874;6.964;2022-09-16T10:13:13;100657.28;;;21.35;50.26
28289;BME280;15558;50.874;6.964;2022-09-16T10:15:40;100662.88;;;21.62;51.62
28289;BME280;15558;50.874;6.964;2022-09-16T10:18:32;100670.16;;;21.60;49.50
28289;BME280;15558;50.874;6.964;2022-09-16T10:21:10;100655.28;;;21.36;50.60
28289;BME280;15558;50.874;6.964;2022-09-16T10:23:37;100656.38;;;21.47;50.17
28289;BME280;15558;50.874;6.964;2022-09-16T10:29:01;100665.75;;;21.13;49.94
28289;BME280;15558;50.874;6.964;2022-09-16T10:31:50;100661.88;;;21.06;50.84
28289;BME280;15558;50.874;6.964;2022-09-16T10:34:31;100657.75;;;21.03;48.85
28289;BME280;15558;50.874;6.964;2022-09-16T10:37:15;100652.72;;;21.46;50.85
28289;BME280;15558;50.874;6.964;2022-09-16T10:39:49;100643.34;;;21.83;49.22
28289;BME280;15558;50.874;6.964;2022-09-16T10:42:27;100647.84;;;21.84;46.89
28289;BME280;15558;50.874;6.964;2022-09-16T10:45:13;100639.25;;;21.47;49.55
28289;BME280;15558;50.874;6.964;2022-09-16T10:47:49;100639.09;;;21.40;48.71
28289;BME280;15558;50.874;6.964;2022-09-16T10:50:18;100644.59;;;21.33;48.17
28289;BME280;15558;50.874;6.964;2022-09-16T10:52:45;100636.09;;;21.51;48.87
28289;BME280;15558;50.874;6.964;2022-09-16T10:55:32;100638.94;;;21.70;47.93
28289;BME280;15558;50.874;6.964;2022-09-16T10:58:16;100629.50;;;21.85;46.95
28289;BME280;15558;50.874;6.964;2022-09-16T11:03:56;100639.69;;;22.64;44.74
28289;BME280;15558;50.874;6.964;2022-09-16T11:09:40;100632.97;;;23.24;44.39
28289;BME280;15558;50.874;6.964;2022-09-16T11:30:36;100606.69;;;23.47;44.50
28289;BME280;15558;50.874;6.964;2022-09-16T11:33:26;100615.94;;;23.92;43.17
28289;BME280;15558;50.874;6.964;2022-09-16T11:36:18;100612.78;;;24.04;40.15
28289;BME280;15558;50.874;6.964;2022-09-16T11:44:41;100605.91;;;24.44;41.31
28289;BME280;15558;50.874;6.964;2022-09-16T11:50:34;100604.75;;;24.52;40.59
28289;BME280;15558;50.874;6.964;2022-09-16T11:56:12;100621.34;;;24.33;40.00
28289;BME280;15558;50.874;6.964;2022-09-16T11:59:00;100614.41;;;24.01;40.78
28289;BME280;15558;50.874;6.964;2022-09-16T12:01:38;100610.44;;;23.80;41.75
28289;BME280;15558;50.874;6.964;2022-09-16T12:04:25;100612.06;;;23.78;41.66
28289;BME280;15558;50.874;6.964;2022-09-16T12:07:12;100624.25;;;23.42;43.20
28289;BME280;15558;50.874;6.964;2022-09-16T12:09:53;100620.81;;;23.33;42.69
28289;BME280;15558;50.874;6.964;2022-09-16T12:12:28;100619.72;;;23.16;41.66
28289;BME280;15558;50.874;6.964;2022-09-16T12:17:40;100627.91;;;22.47;43.88
28289;BME280;15558;50.874;6.964;2022-09-16T12:20:36;100638.88;;;22.23;44.49
28289;BME280;15558;50.874;6.964;2022-09-16T12:23:20;100645.75;;;22.18;46.04
28289;BME280;15558;50.874;6.964;2022-09-16T12:28:36;100654.66;;;22.36;46.24
28289;BME280;15558;50.874;6.964;2022-09-16T12:31:28;100667.47;;;21.85;47.08
28289;BME280;15558;50.874;6.964;2022-09-16T12:33:59;100680.03;;;21.62;48.13
28289;BME280;15558;50.874;6.964;2022-09-16T12:36:30;100690.53;;;21.58;49.17
28289;BME280;15558;50.874;6.964;2022-09-16T12:38:58;100698.56;;;21.53;49.91
28289;BME280;15558;50.874;6.964;2022-09-16T12:49:43;100729.75;;;20.39;53.75
28289;BME280;15558;50.874;6.964;2022-09-16T13:02:52;100719.03;;;19.43;60.02
28289;BME280;15558;50.874;6.964;2022-09-16T13:05:37;100721.28;;;19.26;61.21
28289;BME280;15558;50.874;6.964;2022-09-16T13:10:54;100721.03;;;19.42;62.16
28289;BME280;15558;50.874;6.964;2022-09-16T13:13:34;100720.94;;;19.39;62.88
28289;BME280;15558;50.874;6.964;2022-09-16T13:16:03;100714.16;;;19.43;63.50
28289;BME280;15558;50.874;6.964;2022-09-16T13:18:44;100721.53;;;19.33;62.93
28289;BME280;15558;50.874;6.964;2022-09-16T13:21:20;100713.22;;;19.39;62.95
28289;BME280;15558;50.874;6.964;2022-09-16T13:23:58;100706.84;;;19.31;63.13
28289;BME280;15558;50.874;6.964;2022-09-16T13:26:37;100709.22;;;19.29;63.87
28289;BME280;15558;50.874;6.964;2022-09-16T13:30:03;100702.09;;;19.23;62.91
28289;BME280;15558;50.874;6.964;2022-09-16T13:32:38;100704.94;;;19.23;62.90
28289;BME280;15558;50.874;6.964;2022-09-16T13:37:50;100709.00;;;18.98;61.35
28289;BME280;15558;50.874;6.964;2022-09-16T13:42:46;100712.38;;;18.80;61.03
28289;BME280;15558;50.874;6.964;2022-09-16T13:45:35;100712.72;;;18.78;61.91
28289;BME280;15558;50.874;6.964;2022-09-16T13:48:22;100717.34;;;18.83;62.50
28289;BME280;15558;50.874;6.964;2022-09-16T13:50:52;100711.78;;;18.86;63.03
28289;BME280;15558;50.874;6.964;2022-09-16T13:53:25;100717.88;;;18.97;61.78
28289;BME280;15558;50.874;6.964;2022-09-16T13:59:05;100717.16;;;19.23;62.46
28289;BME280;15558;50.874;6.964;2022-09-16T14:01:48;100726.88;;;19.22;62.13
28289;BME280;15558;50.874;6.964;2022-09-16T14:07:30;100730.06;;;19.09;59.99
28289;BME280;15558;50.874;6.964;2022-09-16T14:13:20;100740.03;;;19.03;59.41
28289;BME280;15558;50.874;6.964;2022-09-16T14:15:50;100730.31;;;19.04;60.61
28289;BME280;15558;50.874;6.964;2022-09-16T14:18:21;100731.38;;;19.11;60.18
28289;BME280;15558;50.874;6.964;2022-09-16T14:20:56;100726.50;;;19.24;59.08
28289;BME280;15558;50.874;6.964;2022-09-16T14:23:24;100719.25;;;19.38;59.48
28289;BME280;15558;50.874;6.964;2022-09-16T14:25:51;100717.34;;;19.54;59.49
28289;BME280;15558;50.874;6.964;2022-09-16T14:28:18;100710.13;;;19.44;59.57
28289;BME280;15558;50.874;6.964;2022-09-16T14:30:49;100707.59;;;19.55;59.22
28289;BME280;15558;50.874;6.964;2022-09-16T14:33:22;100707.97;;;19.53;57.43
28289;BME280;15558;50.874;6.964;2022-09-16T14:35:51;100689.25;;;19.40;58.38
28289;BME280;15558;50.874;6.964;2022-09-16T14:38:20;100695.53;;;19.46;57.97
28289;BME280;15558;50.874;6.964;2022-09-16T14:40:47;100691.03;;;19.45;59.14
28289;BME280;15558;50.874;6.964;2022-09-16T14:43:19;100690.91;;;19.53;59.77
28289;BME280;15558;50.874;6.964;2022-09-16T14:45:51;100690.66;;;19.46;59.40
28289;BME280;15558;50.874;6.964;2022-09-16T14:48:29;100684.41;;;19.41;58.67
28289;BME280;15558;50.874;6.964;2022-09-16T14:50:55;100687.00;;;19.34;57.46
28289;BME280;15558;50.874;6.964;2022-09-16T14:53:26;100679.06;;;19.28;58.73
28289;BME280;15558;50.874;6.964;2022-09-16T14:55:53;100683.31;;;19.45;57.58
28289;BME280;15558;50.874;6.964;2022-09-16T14:58:20;100675.47;;;19.42;59.16
28289;BME280;15558;50.874;6.964;2022-09-16T15:03:27;100680.69;;;19.40;57.73
28289;BME280;15558;50.874;6.964;2022-09-16T15:05:57;100677.16;;;19.43;58.55
28289;BME280;15558;50.874;6.964;2022-09-16T15:11:15;100686.78;;;19.39;57.69
28289;BME280;15558;50.874;6.964;2022-09-16T15:13:43;100686.88;;;19.42;59.37
28289;BME280;15558;50.874;6.964;2022-09-16T15:16:18;100682.16;;;19.34;58.88
28289;BME280;15558;50.874;6.964;2022-09-16T15:18:57;100679.53;;;19.41;57.61
28289;BME280;15558;50.874;6.964;2022-09-16T15:21:27;100678.59;;;19.37;58.12
28289;BME280;15558;50.874;6.964;2022-09-16T15:23:56;100677.63;;;19.45;57.72
28289;BME280;15558;50.874;6.964;2022-09-16T15:26:27;100680.69;;;19.40;58.16
28289;BME280;15558;50.874;6.964;2022-09-16T15:28:59;100686.19;;;19.33;58.05
28289;BME280;15558;50.874;6.964;2022-09-16T15:31:40;100687.13;;;19.26;58.26
28289;BME280;15558;50.874;6.964;2022-09-16T15:36:51;100691.06;;;19.09;55.84
28289;BME280;15558;50.874;6.964;2022-09-16T15:39:38;100682.44;;;19.06;56.11
28289;BME280;15558;50.874;6.964;2022-09-16T15:44:51;100676.22;;;18.92;57.43
28289;BME280;15558;50.874;6.964;2022-09-16T15:47:23;100680.75;;;18.81;57.23
28289;BME280;15558;50.874;6.964;2022-09-16T15:49:59;100683.00;;;18.88;57.45
28289;BME280;15558;50.874;6.964;2022-09-16T15:52:26;100681.91;;;18.80;57.82
28289;BME280;15558;50.874;6.964;2022-09-16T15:54:58;100683.34;;;18.86;57.01
28289;BME280;15558;50.874;6.964;2022-09-16T16:00:01;100685.47;;;18.77;56.96
28289;BME280;15558;50.874;6.964;2022-09-16T16:02:51;100695.78;;;18.70;56.68
28289;BME280;15558;50.874;6.964;2022-09-16T16:05:19;100687.63;;;18.68;57.57